Time;durP1;ratioP1;P1;durP2;ratioP2;P2;SDS_P1;SDS_P2;PMS_P1;PMS_P2;Temp;Humidity;BMP_temperature;BMP_pressure;BME280_temperature;BME280_humidity;BME280_pressure;Samples;Min_cycle;Max_cycle;Signal;HPM_P1;HPM_P2
2022/12/12 00:02:30;;;;;;;13.73;5.18;;;0.20;99.90;;;;;;5101396;28;20044;-89
2022/12/12 00:04:56;;;;;;;12.95;5.50;;;0.80;99.90;;;;;;5089687;28;20036;-89
2022/12/12 00:07:22;;;;;;;10.30;4.28;;;-0.20;99.90;;;;;;5095161;28;20054;-89
2022/12/12 00:09:50;;;;;;;12.82;5.57;;;-0.10;99.90;;;;;;5076334;28;20043;-90
2022/12/12 00:12:16;;;;;;;13.30;5.63;;;-0.20;99.90;;;;;;5075897;28;20048;-90
2022/12/12 00:14:44;;;;;;;10.68;4.60;;;0.10;99.90;;;;;;5076184;28;20047;-91
2022/12/12 00:17:10;;;;;;;10.10;4.60;;;0.50;99.90;;;;;;5093272;28;20040;-90
2022/12/12 00:19:35;;;;;;;10.43;3.58;;;-0.10;99.90;;;;;;5078760;28;20407;-91
2022/12/12 00:22:01;;;;;;;15.38;4.93;;;-0.50;99.90;;;;;;5099668;28;20051;-91
2022/12/12 00:24:27;;;;;;;11.30;4.50;;;0.60;99.90;;;;;;5078182;28;20044;-89
2022/12/12 00:26:53;;;;;;;11.75;4.30;;;-0.10;99.90;;;;;;5098839;28;20437;-89
2022/12/12 00:29:19;;;;;;;10.50;4.47;;;0.40;99.90;;;;;;5071090;28;20504;-90
2022/12/12 00:31:49;;;;;;;11.85;4.50;;;0.80;99.90;;;;;;5075628;28;20050;-91
2022/12/12 00:34:15;;;;;;;10.77;4.63;;;-0.10;99.90;;;;;;5075156;28;20068;-90
2022/12/12 00:36:41;;;;;;;10.82;3.60;;;-0.10;99.90;;;;;;5074784;28;20527;-89
2022/12/12 00:39:06;;;;;;;11.43;4.03;;;0.50;99.90;;;;;;5102375;28;20172;-91
2022/12/12 00:41:32;;;;;;;12.63;4.88;;;0.70;99.90;;;;;;5101306;28;20108;-90
2022/12/12 00:43:58;;;;;;;11.80;3.83;;;0.30;99.90;;;;;;5083731;28;20044;-88
2022/12/12 00:46:24;;;;;;;13.23;4.93;;;0.70;99.90;;;;;;5100756;28;20079;-90
2022/12/12 00:48:54;;;;;;;9.38;4.32;;;1.30;99.90;;;;;;5083593;28;20068;-89
2022/12/12 00:51:22;;;;;;;12.13;4.50;;;0.40;99.90;;;;;;5074717;28;20051;-89
2022/12/12 00:53:49;;;;;;;10.43;4.30;;;-0.30;99.90;;;;;;5074739;28;20062;-91
2022/12/12 00:56:20;;;;;;;9.82;4.20;;;-0.30;99.90;;;;;;5083077;28;20071;-89
2022/12/12 00:58:46;;;;;;;10.18;3.63;;;-0.80;99.90;;;;;;5073862;28;20090;-90
2022/12/12 01:01:20;;;;;;;12.30;3.63;;;-0.10;99.90;;;;;;5082857;28;20051;-90
2022/12/12 01:03:46;;;;;;;9.75;4.03;;;0.00;99.90;;;;;;5083110;28;20132;-90
2022/12/12 01:06:16;;;;;;;10.93;4.22;;;0.00;99.90;;;;;;5083052;28;20048;-90
2022/12/12 01:08:42;;;;;;;12.68;4.20;;;-0.10;99.90;;;;;;5074335;28;20052;-89
2022/12/12 01:11:09;;;;;;;12.70;4.65;;;0.00;99.90;;;;;;5082103;28;20079;-89
2022/12/12 01:13:35;;;;;;;8.95;3.88;;;0.00;99.90;;;;;;5101080;28;20129;-89
2022/12/12 01:16:02;;;;;;;10.02;3.63;;;-0.10;99.90;;;;;;5082469;28;20044;-87
2022/12/12 01:18:28;;;;;;;9.57;4.55;;;1.10;99.90;;;;;;5101017;28;20125;-90
2022/12/12 01:20:54;;;;;;;10.70;4.35;;;0.30;99.90;;;;;;5082660;28;20476;-91
2022/12/12 01:23:20;;;;;;;11.05;4.45;;;0.00;99.90;;;;;;5074930;28;20039;-90
2022/12/12 01:25:45;;;;;;;12.15;3.85;;;0.80;99.90;;;;;;5074210;28;20484;-88
2022/12/12 01:28:11;;;;;;;12.20;4.80;;;-0.10;99.90;;;;;;5100864;28;20114;-89
2022/12/12 01:30:37;;;;;;;10.55;3.75;;;-0.10;99.90;;;;;;5074308;28;20477;-89
2022/12/12 01:33:03;;;;;;;9.25;4.45;;;0.20;99.90;;;;;;5077267;28;20048;-90
2022/12/12 01:35:31;;;;;;;10.05;3.80;;;0.50;99.90;;;;;;5087156;28;20090;-90
2022/12/12 01:37:59;;;;;;;12.68;4.60;;;-0.10;99.90;;;;;;5100563;28;20104;-90
2022/12/12 01:40:28;;;;;;;10.75;4.10;;;0.00;99.90;;;;;;5100658;28;20051;-90
2022/12/12 01:42:54;;;;;;;9.15;3.78;;;0.70;99.90;;;;;;5073223;28;20086;-89
2022/12/12 01:45:54;;;;;;;9.52;3.72;;;0.00;99.90;;;;;;5100618;28;20039;-90
2022/12/12 01:48:22;;;;;;;12.70;4.68;;;-0.10;99.90;;;;;;5068257;28;20044;-89
2022/12/12 01:50:49;;;;;;;15.88;4.82;;;0.60;99.90;;;;;;5100577;28;20043;-88
2022/12/12 01:53:17;;;;;;;10.68;4.20;;;-0.10;99.90;;;;;;5060376;28;20084;-89
2022/12/12 01:55:45;;;;;;;11.05;4.32;;;0.90;99.90;;;;;;5092732;28;20109;-91
2022/12/12 01:58:10;;;;;;;12.52;4.50;;;0.10;99.90;;;;;;5079008;28;20043;-90
2022/12/12 02:00:36;;;;;;;11.20;4.28;;;-0.20;99.90;;;;;;5080471;28;20051;-90
2022/12/12 02:03:02;;;;;;;10.73;4.10;;;0.50;99.90;;;;;;5094281;28;20373;-89
2022/12/12 02:05:50;;;;;;;11.77;4.55;;;-0.10;99.90;;;;;;5080921;28;20029;-89
2022/12/12 02:08:21;;;;;;;11.27;4.43;;;-0.10;99.90;;;;;;5105366;28;20050;-90
2022/12/12 02:10:47;;;;;;;13.13;4.32;;;-0.10;99.90;;;;;;5086991;28;20130;-91
2022/12/12 02:13:18;;;;;;;12.30;3.72;;;-0.10;99.90;;;;;;5077587;28;20445;-92
2022/12/12 02:15:56;;;;;;;11.02;4.10;;;0.90;99.90;;;;;;5086065;28;20105;-90
2022/12/12 02:18:40;;;;;;;10.27;4.40;;;-0.10;99.90;;;;;;5070364;28;20044;-90
2022/12/12 02:21:33;;;;;;;9.93;3.88;;;-0.10;99.90;;;;;;5069873;28;20455;-89
2022/12/12 02:24:22;;;;;;;13.27;5.18;;;-0.10;99.90;;;;;;5060581;28;20480;-89
2022/12/12 02:27:25;;;;;;;9.95;4.07;;;-0.10;99.90;;;;;;5095282;28;20043;-90
2022/12/12 02:30:02;;;;;;;12.13;4.47;;;-0.10;99.90;;;;;;5098276;28;20043;-90
2022/12/12 02:33:01;;;;;;;14.52;4.90;;;-0.40;99.90;;;;;;5069684;28;20051;-91
2022/12/12 02:36:10;;;;;;;12.02;4.90;;;-0.20;99.90;;;;;;5094524;28;20130;-91
2022/12/12 02:39:03;;;;;;;10.27;4.20;;;-0.10;99.90;;;;;;5062592;28;20059;-90
2022/12/12 02:41:41;;;;;;;9.13;4.10;;;0.50;99.90;;;;;;4984806;28;20119;-88
2022/12/12 02:44:18;;;;;;;11.13;4.53;;;-0.20;99.90;;;;;;4978333;28;20054;-90
2022/12/12 02:47:11;;;;;;;10.27;4.15;;;-0.30;99.90;;;;;;4998715;28;20521;-92
2022/12/12 02:49:53;;;;;;;9.43;4.05;;;-0.20;99.90;;;;;;4972186;28;20503;-91
2022/12/12 02:52:19;;;;;;;11.43;3.70;;;-0.30;99.90;;;;;;4985476;28;20050;-91
2022/12/12 02:54:47;;;;;;;8.48;3.55;;;0.40;99.90;;;;;;4982068;28;20072;-90
2022/12/12 02:57:22;;;;;;;10.32;4.55;;;-0.30;99.90;;;;;;4981097;28;20053;-89
2022/12/12 03:00:01;;;;;;;10.82;4.43;;;-0.70;99.90;;;;;;4955677;28;20093;-89
2022/12/12 03:02:47;;;;;;;12.80;4.50;;;0.40;99.90;;;;;;4984579;28;20054;-90
2022/12/12 03:08:26;;;;;;;11.43;3.87;;;-0.20;99.90;;;;;;4998659;28;20054;-88
2022/12/12 03:10:58;;;;;;;14.60;5.30;;;-0.30;99.90;;;;;;4978005;28;20150;-89
2022/12/12 03:13:59;;;;;;;11.65;4.28;;;-1.10;99.90;;;;;;5001574;28;20050;-89
2022/12/12 03:16:35;;;;;;;8.63;3.70;;;-0.20;99.90;;;;;;4967111;28;20043;-90
2022/12/12 03:19:10;;;;;;;9.85;3.85;;;-0.30;99.90;;;;;;5087241;27;20051;-92
2022/12/12 03:21:51;;;;;;;9.63;3.40;;;0.80;99.90;;;;;;5103379;28;20047;-89
2022/12/12 03:24:32;;;;;;;8.63;3.75;;;0.70;99.90;;;;;;5071274;28;20048;-92
2022/12/12 03:30:44;;;;;;;10.48;3.88;;;-0.20;99.90;;;;;;5091605;28;20071;-91
2022/12/12 03:33:24;;;;;;;11.52;4.95;;;0.60;99.90;;;;;;5106313;28;20091;-91
2022/12/12 03:35:58;;;;;;;10.20;4.30;;;-0.30;99.90;;;;;;5078675;28;20503;-91
2022/12/12 03:38:29;;;;;;;12.15;4.47;;;-0.30;99.90;;;;;;5092193;28;20092;-91
2022/12/12 03:40:58;;;;;;;9.50;3.88;;;0.80;99.90;;;;;;5078775;28;20073;-89
2022/12/12 03:43:37;;;;;;;9.85;4.03;;;-0.20;99.90;;;;;;5052298;28;20169;-91
2022/12/12 03:46:28;;;;;;;11.43;4.57;;;-0.20;99.90;;;;;;5075817;28;20072;-91
2022/12/12 03:49:03;;;;;;;10.32;4.30;;;-0.30;99.90;;;;;;5084600;28;20048;-89
2022/12/12 03:51:31;;;;;;;9.15;3.75;;;-0.20;99.90;;;;;;5101452;28;20089;-91
2022/12/12 03:54:15;;;;;;;9.52;3.55;;;-0.10;99.90;;;;;;5102468;28;20059;-90
2022/12/12 03:57:06;;;;;;;10.60;4.25;;;-0.30;99.90;;;;;;5088520;28;20389;-88
2022/12/12 03:59:52;;;;;;;9.63;4.18;;;-0.20;99.90;;;;;;5075708;28;20130;-88
2022/12/12 04:02:38;;;;;;;13.98;4.22;;;-0.20;99.90;;;;;;5020609;28;20085;-90
2022/12/12 04:05:16;;;;;;;11.13;3.95;;;-0.20;99.90;;;;;;5009163;28;20406;-90
2022/12/12 04:08:05;;;;;;;11.38;3.72;;;1.10;99.90;;;;;;4996210;28;20101;-88
2022/12/12 04:14:12;;;;;;;9.73;4.18;;;1.30;99.90;;;;;;4998331;28;20133;-89
2022/12/12 04:16:41;;;;;;;10.05;3.65;;;0.90;99.90;;;;;;5005174;28;20121;-91
2022/12/12 04:23:13;;;;;;;9.18;3.13;;;0.60;99.90;;;;;;5006207;28;20080;-91
2022/12/12 04:24:58;;;;;;;11.82;4.28;;;-0.70;99.90;;;;;;5035946;28;20042;-91
2022/12/12 04:27:32;;;;;;;9.68;3.78;;;0.10;99.90;;;;;;5001128;28;20058;-90
2022/12/12 04:30:06;;;;;;;12.60;4.20;;;0.90;99.90;;;;;;5019132;28;20062;-89
2022/12/12 04:32:35;;;;;;;10.45;4.57;;;-0.20;99.90;;;;;;5028946;28;20557;-91
2022/12/12 04:35:12;;;;;;;13.63;4.88;;;-0.30;99.90;;;;;;5021342;28;20491;-92
2022/12/12 04:38:00;;;;;;;9.88;4.10;;;-0.10;99.90;;;;;;5000097;28;20045;-88
2022/12/12 04:40:36;;;;;;;8.85;3.08;;;-0.20;99.90;;;;;;5083874;28;20504;-88
2022/12/12 04:43:16;;;;;;;13.38;4.45;;;-1.00;99.90;;;;;;5103086;28;20038;-89
2022/12/12 04:45:49;;;;;;;10.95;4.00;;;0.40;99.90;;;;;;5076047;28;20384;-90
2022/12/12 04:48:19;;;;;;;12.05;4.75;;;-0.20;99.90;;;;;;5102729;28;20040;-88
2022/12/12 04:50:48;;;;;;;12.50;4.05;;;-0.20;99.90;;;;;;5088842;28;20048;-89
2022/12/12 04:53:17;;;;;;;11.02;4.22;;;0.20;99.90;;;;;;5075045;28;20093;-88
2022/12/12 04:55:55;;;;;;;13.52;4.53;;;-0.70;99.90;;;;;;5099805;28;20066;-88
2022/12/12 04:58:22;;;;;;;10.80;4.07;;;0.90;99.90;;;;;;5101145;28;20093;-89
2022/12/12 05:01:05;;;;;;;10.77;4.18;;;-0.30;99.90;;;;;;5092758;28;20374;-87
2022/12/12 05:03:48;;;;;;;12.82;4.68;;;0.20;99.90;;;;;;5075055;28;20044;-87
2022/12/12 05:06:18;;;;;;;10.90;4.28;;;-0.20;99.90;;;;;;5101750;28;20044;-89
2022/12/12 05:08:48;;;;;;;9.38;3.30;;;0.50;99.90;;;;;;5101875;28;20055;-87
2022/12/12 05:11:17;;;;;;;11.30;4.72;;;-0.60;99.90;;;;;;5064685;28;20116;-89
2022/12/12 05:13:43;;;;;;;12.00;4.20;;;-0.20;99.90;;;;;;5076629;28;20048;-89
2022/12/12 05:16:31;;;;;;;9.48;4.53;;;-0.40;99.90;;;;;;5105119;28;20050;-88
2022/12/12 05:18:57;;;;;;;9.15;3.65;;;0.70;99.90;;;;;;5058053;28;20048;-88
2022/12/12 05:21:23;;;;;;;12.35;4.50;;;0.30;99.90;;;;;;5099848;28;20090;-88
2022/12/12 05:23:49;;;;;;;12.23;4.63;;;-0.30;99.90;;;;;;5074534;28;20042;-86
2022/12/12 05:26:22;;;;;;;12.95;4.10;;;-0.40;99.90;;;;;;5082783;28;20481;-90
2022/12/12 05:28:48;;;;;;;10.68;4.32;;;-0.40;99.90;;;;;;5100410;28;20036;-87
2022/12/12 05:31:13;;;;;;;11.15;3.50;;;-0.60;99.90;;;;;;5081853;28;20040;-86
2022/12/12 05:33:39;;;;;;;10.95;3.95;;;0.80;99.90;;;;;;5081287;28;20051;-88
2022/12/12 05:36:05;;;;;;;11.13;4.55;;;-0.60;99.90;;;;;;5092407;28;20036;-88
2022/12/12 05:38:31;;;;;;;11.20;3.65;;;-0.50;99.90;;;;;;5074860;28;20493;-90
2022/12/12 05:40:59;;;;;;;10.63;3.67;;;-0.20;99.90;;;;;;5099052;28;20190;-88
2022/12/12 05:43:25;;;;;;;8.95;4.38;;;-0.40;99.90;;;;;;5093462;28;20040;-88
2022/12/12 05:45:51;;;;;;;11.55;4.38;;;-0.10;99.90;;;;;;5082410;28;20113;-86
2022/12/12 05:48:17;;;;;;;10.75;3.78;;;0.70;99.90;;;;;;5074575;28;20404;-86
2022/12/12 05:50:43;;;;;;;10.40;3.97;;;0.00;99.90;;;;;;5075316;28;20032;-88
2022/12/12 05:53:10;;;;;;;13.20;4.80;;;-0.60;99.90;;;;;;5076123;28;20396;-88
2022/12/12 05:55:36;;;;;;;12.50;5.07;;;0.10;99.90;;;;;;5070570;28;20376;-88
2022/12/12 05:58:02;;;;;;;8.20;3.35;;;-0.60;99.90;;;;;;5101631;28;20101;-86
2022/12/12 06:00:27;;;;;;;13.80;4.75;;;0.70;99.90;;;;;;5102092;28;20431;-86
2022/12/12 06:02:53;;;;;;;12.10;3.95;;;0.60;99.90;;;;;;5074904;28;20066;-88
2022/12/12 06:05:19;;;;;;;13.02;4.25;;;-0.70;99.90;;;;;;5081755;28;20040;-86
2022/12/12 06:07:45;;;;;;;9.32;3.70;;;-0.60;99.90;;;;;;5074642;28;20040;-89
2022/12/12 06:10:11;;;;;;;12.27;4.47;;;-0.70;99.90;;;;;;5073937;28;20081;-90
2022/12/12 06:12:37;;;;;;;9.38;3.95;;;-0.50;99.90;;;;;;5073694;28;20082;-90
2022/12/12 06:15:03;;;;;;;10.00;4.13;;;0.40;99.90;;;;;;5083398;28;20040;-88
2022/12/12 06:17:31;;;;;;;12.05;4.50;;;-0.70;99.90;;;;;;5077581;28;20079;-90
2022/12/12 06:19:57;;;;;;;9.15;3.80;;;-0.70;99.90;;;;;;5084056;28;20044;-87
2022/12/12 06:22:26;;;;;;;12.82;4.38;;;-0.70;99.90;;;;;;5082327;28;20527;-86
2022/12/12 06:24:52;;;;;;;10.30;4.00;;;-0.40;99.90;;;;;;5075523;28;20405;-85
2022/12/12 06:27:18;;;;;;;11.15;4.65;;;-0.30;99.90;;;;;;5110885;28;20088;-86
2022/12/12 06:29:43;;;;;;;12.32;4.63;;;0.00;99.90;;;;;;5095877;28;20446;-84
2022/12/12 06:32:09;;;;;;;8.30;3.72;;;-0.20;99.90;;;;;;5102887;28;20105;-84
2022/12/12 06:34:37;;;;;;;10.48;3.30;;;0.30;99.90;;;;;;5061558;28;20054;-85
2022/12/12 06:37:05;;;;;;;9.13;3.53;;;-0.20;99.90;;;;;;5082185;28;20122;-85
2022/12/12 06:39:30;;;;;;;9.20;3.92;;;0.00;99.90;;;;;;5097692;28;20044;-87
2022/12/12 06:42:36;;;;;;;11.73;4.00;;;1.40;99.90;;;;;;5074235;28;20047;-86
2022/12/12 06:45:02;;;;;;;13.00;4.25;;;-0.80;99.90;;;;;;5072193;28;20101;-92
2022/12/12 06:47:28;;;;;;;11.95;4.68;;;-0.80;99.90;;;;;;5102886;28;20046;-91
2022/12/12 06:49:54;;;;;;;11.18;3.90;;;-0.70;99.90;;;;;;5092810;28;20464;-91
2022/12/12 06:52:19;;;;;;;11.23;4.50;;;0.20;99.90;;;;;;5102711;28;20039;-91
2022/12/12 06:54:45;;;;;;;11.32;3.97;;;-0.70;99.90;;;;;;5108299;28;20103;-89
2022/12/12 06:57:11;;;;;;;9.52;4.22;;;-0.80;99.90;;;;;;5106517;28;20047;-91
2022/12/12 06:59:37;;;;;;;9.02;4.03;;;-0.80;99.90;;;;;;5102599;28;20070;-91
2022/12/12 07:02:03;;;;;;;10.32;3.85;;;-0.30;99.90;;;;;;5084801;28;20059;-90
2022/12/12 07:04:28;;;;;;;11.30;4.07;;;-0.80;99.90;;;;;;5106473;28;20114;-91
2022/12/12 07:06:54;;;;;;;10.32;3.83;;;-0.60;99.90;;;;;;5069616;28;20043;-90
2022/12/12 07:09:20;;;;;;;11.75;4.05;;;0.40;99.90;;;;;;5104101;28;20048;-87
2022/12/12 07:11:46;;;;;;;9.82;3.67;;;-0.80;99.90;;;;;;5077119;28;20055;-91
2022/12/12 07:14:11;;;;;;;9.65;3.30;;;0.20;99.90;;;;;;5085286;28;20138;-89
2022/12/12 07:16:38;;;;;;;10.90;3.88;;;-0.80;99.90;;;;;;5076842;28;20059;-89
2022/12/12 07:19:03;;;;;;;9.80;3.25;;;0.30;99.90;;;;;;5105508;28;20051;-88
2022/12/12 07:21:30;;;;;;;9.98;3.58;;;0.60;99.90;;;;;;5098488;28;20058;-89
2022/12/12 07:23:56;;;;;;;8.02;3.42;;;-0.90;99.90;;;;;;5086928;28;20048;-91
2022/12/12 07:26:23;;;;;;;12.45;4.38;;;0.20;99.90;;;;;;5065260;28;20047;-91
2022/12/12 07:28:50;;;;;;;10.20;3.92;;;-0.80;99.90;;;;;;5076150;28;20097;-89
2022/12/12 07:31:18;;;;;;;11.35;3.90;;;-0.60;99.90;;;;;;5077312;28;20443;-88
2022/12/12 07:33:44;;;;;;;11.38;4.05;;;-0.70;99.90;;;;;;5076573;28;20397;-86
2022/12/12 07:36:12;;;;;;;10.18;3.63;;;-0.40;99.90;;;;;;5076255;28;20563;-89
2022/12/12 07:38:38;;;;;;;12.18;3.67;;;0.20;99.90;;;;;;5097131;28;20036;-90
2022/12/12 07:41:06;;;;;;;10.45;4.30;;;-0.10;99.90;;;;;;5076138;28;20084;-87
2022/12/12 07:43:37;;;;;;;10.13;3.88;;;0.00;99.90;;;;;;5102087;28;20373;-86
2022/12/12 07:46:06;;;;;;;9.93;3.53;;;-0.80;99.90;;;;;;5084404;28;20047;-90
2022/12/12 07:48:32;;;;;;;12.23;4.20;;;-0.80;99.90;;;;;;5083166;28;20032;-86
2022/12/12 07:51:01;;;;;;;7.90;3.45;;;0.20;99.90;;;;;;5083266;28;20109;-86
2022/12/12 07:53:30;;;;;;;10.13;3.75;;;-0.70;99.90;;;;;;5080911;28;20031;-87
2022/12/12 07:55:55;;;;;;;10.43;3.42;;;-0.80;99.90;;;;;;5097318;28;20047;-86
2022/12/12 07:58:22;;;;;;;9.18;4.15;;;0.10;99.90;;;;;;5101519;28;20400;-86
2022/12/12 08:00:51;;;;;;;10.70;4.00;;;-0.40;99.90;;;;;;5102623;28;20477;-85
2022/12/12 08:03:16;;;;;;;8.40;4.10;;;-0.70;99.90;;;;;;5075310;28;20052;-83
2022/12/12 08:05:42;;;;;;;7.43;3.08;;;-0.70;99.90;;;;;;5101673;28;20050;-84
2022/12/12 08:08:08;;;;;;;8.77;3.75;;;-0.70;99.90;;;;;;5101820;28;20051;-84
2022/12/12 08:10:38;;;;;;;8.95;3.42;;;-0.80;99.90;;;;;;5102603;28;20035;-84
2022/12/12 08:13:03;;;;;;;8.75;3.17;;;-0.20;99.90;;;;;;5093754;28;20036;-84
2022/12/12 08:15:32;;;;;;;8.80;3.47;;;-0.10;99.90;;;;;;5103041;28;20059;-84
2022/12/12 08:17:58;;;;;;;11.27;4.22;;;-0.90;99.90;;;;;;5101860;28;20097;-84
2022/12/12 08:20:24;;;;;;;10.88;4.13;;;-0.80;99.90;;;;;;5101131;28;20504;-84
2022/12/12 08:22:50;;;;;;;9.10;3.78;;;-0.10;99.90;;;;;;5099117;28;20082;-84
2022/12/12 08:25:15;;;;;;;11.55;3.97;;;-0.90;99.90;;;;;;5103394;28;20047;-85
2022/12/12 08:27:41;;;;;;;10.52;3.72;;;-0.80;99.90;;;;;;5104842;28;20096;-82
2022/12/12 08:30:08;;;;;;;11.75;4.25;;;-0.90;99.90;;;;;;5103289;28;20047;-84
2022/12/12 08:32:35;;;;;;;14.48;4.68;;;-0.80;99.90;;;;;;5095162;28;20488;-84
2022/12/12 08:35:01;;;;;;;10.73;3.95;;;-0.30;99.90;;;;;;5093954;28;20040;-84
2022/12/12 08:37:27;;;;;;;9.13;3.80;;;-0.80;99.90;;;;;;5075775;28;20115;-85
2022/12/12 08:39:52;;;;;;;9.25;2.88;;;-0.90;99.90;;;;;;5094452;28;20437;-85
2022/12/12 08:42:18;;;;;;;8.48;3.42;;;-0.20;99.90;;;;;;5094311;28;20043;-83
2022/12/12 08:44:44;;;;;;;11.45;3.88;;;-0.80;99.90;;;;;;5094078;28;20143;-85
2022/12/12 08:47:09;;;;;;;9.63;3.63;;;-0.80;99.90;;;;;;5075630;28;20391;-86
2022/12/12 08:49:35;;;;;;;12.57;4.18;;;-0.70;99.90;;;;;;5093758;28;20051;-83
2022/12/12 08:52:04;;;;;;;10.93;4.13;;;-0.60;99.90;;;;;;5093922;28;20366;-84
2022/12/12 08:54:30;;;;;;;13.50;4.80;;;0.20;99.90;;;;;;5093777;28;20542;-84
2022/12/12 08:56:56;;;;;;;12.82;4.53;;;-0.60;99.90;;;;;;5075793;28;20059;-85
2022/12/12 08:59:25;;;;;;;10.88;4.10;;;0.00;99.90;;;;;;5076082;28;20178;-84
2022/12/12 09:01:50;;;;;;;9.88;4.93;;;0.00;99.90;;;;;;5075977;28;20119;-84
2022/12/12 09:04:16;;;;;;;10.02;3.53;;;0.30;99.90;;;;;;5075573;28;20039;-84
2022/12/12 09:06:44;;;;;;;10.73;4.43;;;-0.10;99.90;;;;;;5075566;28;20047;-85
2022/12/12 09:09:10;;;;;;;10.65;3.95;;;-0.40;99.90;;;;;;5094312;28;20461;-83
2022/12/12 09:11:36;;;;;;;12.15;5.03;;;0.00;99.90;;;;;;5075583;28;20123;-84
2022/12/12 09:14:02;;;;;;;10.57;4.28;;;-0.40;99.90;;;;;;5076077;28;20044;-84
2022/12/12 09:16:28;;;;;;;11.02;5.50;;;0.60;99.90;;;;;;5093492;28;20078;-84
2022/12/12 09:18:55;;;;;;;11.23;3.85;;;-0.20;99.90;;;;;;5070910;28;20059;-84
2022/12/12 09:21:21;;;;;;;10.77;4.00;;;-0.60;99.90;;;;;;5073275;28;20493;-84
2022/12/12 09:23:48;;;;;;;9.00;4.05;;;0.00;99.90;;;;;;5055009;28;20052;-83
2022/12/12 09:26:13;;;;;;;10.88;3.85;;;0.70;99.90;;;;;;5072234;28;20072;-84
2022/12/12 09:28:39;;;;;;;12.10;4.20;;;-0.20;99.90;;;;;;5055069;28;20087;-84
2022/12/12 09:31:06;;;;;;;10.05;3.60;;;-0.70;99.90;;;;;;5071246;28;20036;-84
2022/12/12 09:33:32;;;;;;;10.02;4.22;;;1.00;99.90;;;;;;5073158;28;20051;-84
2022/12/12 09:36:00;;;;;;;7.97;3.78;;;-0.20;99.90;;;;;;5054784;28;20413;-86
2022/12/12 09:38:26;;;;;;;10.15;3.97;;;0.40;99.90;;;;;;5052980;28;20045;-86
2022/12/12 09:41:10;;;;;;;13.45;4.80;;;-0.20;99.90;;;;;;5072935;28;20127;-86
2022/12/12 09:44:06;;;;;;;9.50;3.60;;;0.00;99.90;;;;;;5072875;28;20430;-86
2022/12/12 09:46:46;;;;;;;9.50;3.85;;;0.10;99.90;;;;;;5072772;28;20044;-85
2022/12/12 09:49:20;;;;;;;10.35;4.20;;;-0.20;99.90;;;;;;5055161;28;20098;-85
2022/12/12 09:51:50;;;;;;;11.23;5.03;;;0.20;99.90;;;;;;5054453;28;20092;-85
2022/12/12 09:54:20;;;;;;;10.05;4.75;;;0.50;99.90;;;;;;5054667;28;20045;-84
2022/12/12 09:57:19;;;;;;;13.68;4.68;;;0.20;99.90;;;;;;5073183;28;20051;-85
2022/12/12 09:59:53;;;;;;;10.48;4.57;;;0.30;99.90;;;;;;4955890;28;20141;-84
2022/12/12 10:03:00;;;;;;;9.35;4.38;;;0.30;99.90;;;;;;4971707;28;20094;-84
2022/12/12 10:05:36;;;;;;;13.60;4.60;;;0.30;99.90;;;;;;4971947;28;20069;-84
2022/12/12 10:08:18;;;;;;;12.80;4.60;;;0.40;99.90;;;;;;4956158;28;20062;-84
2022/12/12 10:10:51;;;;;;;8.88;4.13;;;1.30;99.90;;;;;;4971782;28;20050;-85
2022/12/12 10:13:24;;;;;;;9.73;4.30;;;0.40;99.90;;;;;;4971948;28;20067;-84
2022/12/12 10:16:03;;;;;;;13.20;4.70;;;0.40;99.90;;;;;;4955806;28;20047;-83
2022/12/12 10:18:37;;;;;;;10.10;3.78;;;1.80;99.90;;;;;;4971997;28;20050;-85
2022/12/12 10:21:11;;;;;;;11.20;4.00;;;0.40;99.90;;;;;;4991348;28;20058;-84
2022/12/12 10:23:59;;;;;;;8.98;3.67;;;1.80;99.90;;;;;;5007863;28;20447;-86
2022/12/12 10:26:27;;;;;;;11.70;4.25;;;0.80;99.90;;;;;;4974863;28;20519;-83
2022/12/12 10:28:57;;;;;;;11.25;3.70;;;0.70;99.90;;;;;;5011133;28;20104;-83
2022/12/12 10:32:00;;;;;;;12.02;4.60;;;0.40;99.90;;;;;;4994747;28;20519;-83
2022/12/12 10:34:26;;;;;;;11.45;5.28;;;0.50;99.90;;;;;;4994401;28;20064;-82
2022/12/12 10:37:14;;;;;;;11.88;4.45;;;0.50;99.90;;;;;;5050164;28;20115;-82
2022/12/12 10:39:55;;;;;;;8.98;3.25;;;0.50;99.90;;;;;;5083677;28;20076;-83
2022/12/12 10:42:35;;;;;;;8.93;3.92;;;-0.20;99.90;;;;;;5083699;28;20124;-82
2022/12/12 10:45:37;;;;;;;10.52;4.30;;;0.60;99.90;;;;;;5086669;28;20047;-83
2022/12/12 10:48:04;;;;;;;8.60;3.78;;;0.70;99.90;;;;;;5060629;28;20055;-83
2022/12/12 10:50:41;;;;;;;9.93;3.47;;;0.70;99.90;;;;;;5083058;28;20123;-83
2022/12/12 10:53:09;;;;;;;8.73;3.53;;;0.80;99.90;;;;;;5083568;28;20075;-83
2022/12/12 10:55:51;;;;;;;7.57;2.83;;;0.60;99.90;;;;;;5083887;28;20047;-83
2022/12/12 10:58:18;;;;;;;8.13;3.28;;;0.90;99.90;;;;;;5086752;28;20051;-82
2022/12/12 11:00:47;;;;;;;6.82;3.08;;;1.00;99.90;;;;;;5075688;28;20040;-82
2022/12/12 11:03:43;;;;;;;9.60;3.45;;;1.00;99.90;;;;;;5082603;28;20052;-82
2022/12/12 11:06:35;;;;;;;11.07;4.18;;;1.00;99.90;;;;;;5077282;28;20044;-82
2022/12/12 11:09:16;;;;;;;8.50;3.90;;;1.10;99.90;;;;;;5075142;28;20145;-83
2022/12/12 11:12:21;;;;;;;10.10;4.20;;;1.10;99.90;;;;;;5082037;28;20511;-83
2022/12/12 11:14:50;;;;;;;10.18;4.82;;;1.10;99.90;;;;;;5082032;28;20113;-84
2022/12/12 11:17:51;;;;;;;11.27;4.45;;;1.20;99.90;;;;;;5068615;28;20055;-85
2022/12/12 11:20:17;;;;;;;11.75;4.30;;;1.90;99.90;;;;;;4997026;28;20080;-83
2022/12/12 11:22:43;;;;;;;11.68;4.78;;;1.10;99.90;;;;;;5029348;28;20045;-83
2022/12/12 11:25:28;;;;;;;7.75;3.78;;;1.80;99.90;;;;;;5004493;28;20549;-83
2022/12/12 11:27:58;;;;;;;8.45;3.83;;;2.50;99.90;;;;;;5031751;28;20103;-83
2022/12/12 11:30:31;;;;;;;9.27;3.88;;;1.30;99.90;;;;;;5025015;28;20050;-83
2022/12/12 11:32:58;;;;;;;10.50;4.60;;;1.30;99.90;;;;;;5005013;28;20100;-84
2022/12/12 11:35:38;;;;;;;11.18;5.05;;;1.40;99.90;;;;;;5021816;28;20441;-84
2022/12/12 11:38:07;;;;;;;11.77;3.78;;;1.30;99.90;;;;;;5022098;28;20046;-84
2022/12/12 11:40:37;;;;;;;10.98;5.05;;;1.30;99.90;;;;;;5021878;28;20435;-84
2022/12/12 11:43:24;;;;;;;8.13;3.83;;;1.40;99.90;;;;;;5006051;28;20057;-83
2022/12/12 11:46:03;;;;;;;9.35;3.75;;;1.40;99.90;;;;;;5004658;28;20045;-83
2022/12/12 11:48:32;;;;;;;10.68;3.78;;;1.40;99.90;;;;;;5004582;28;20058;-84
2022/12/12 11:51:02;;;;;;;8.77;3.50;;;1.40;99.90;;;;;;4992085;28;20528;-83
2022/12/12 11:53:28;;;;;;;8.93;3.97;;;1.50;99.90;;;;;;5016670;28;20037;-83
2022/12/12 11:56:09;;;;;;;7.53;3.55;;;2.00;99.90;;;;;;5031651;28;20052;-86
2022/12/12 11:58:58;;;;;;;10.27;3.25;;;1.60;99.90;;;;;;5061544;28;20093;-83
2022/12/12 12:01:26;;;;;;;9.32;3.75;;;2.90;99.90;;;;;;5062381;28;20096;-83
2022/12/12 12:03:59;;;;;;;9.75;3.70;;;2.60;99.90;;;;;;5043218;28;20053;-82
2022/12/12 12:06:55;;;;;;;10.20;4.82;;;1.60;99.90;;;;;;5045479;28;20223;-82
2022/12/12 12:09:47;;;;;;;8.45;3.88;;;1.60;99.90;;;;;;5060407;28;20116;-83
2022/12/12 12:12:16;;;;;;;9.88;4.13;;;1.70;99.90;;;;;;5059483;28;20481;-84
2022/12/12 12:14:53;;;;;;;9.10;3.80;;;1.70;99.90;;;;;;5048450;28;20053;-83
2022/12/12 12:17:39;;;;;;;9.88;4.15;;;1.80;99.90;;;;;;5059890;28;20072;-85
2022/12/12 12:20:23;;;;;;;8.50;3.33;;;1.80;99.90;;;;;;5054339;28;20059;-84
2022/12/12 12:23:17;;;;;;;9.48;4.65;;;1.80;99.90;;;;;;5062380;28;20045;-84
2022/12/12 12:25:48;;;;;;;10.70;5.20;;;1.80;99.90;;;;;;5013684;28;20511;-84
2022/12/12 12:28:23;;;;;;;10.25;4.70;;;1.80;99.90;;;;;;4999449;28;20101;-84
2022/12/12 12:31:20;;;;;;;13.15;4.45;;;1.80;99.90;;;;;;4993809;28;20135;-82
2022/12/12 12:34:30;;;;;;;12.63;4.95;;;1.80;99.90;;;;;;4948136;28;20141;-83
2022/12/12 12:37:33;;;;;;;12.00;4.80;;;1.70;99.90;;;;;;4943404;28;20058;-83
2022/12/12 12:40:05;;;;;;;10.10;5.15;;;1.40;99.90;;;;;;4934490;29;20047;-82
2022/12/12 12:42:47;;;;;;;12.77;5.15;;;1.60;99.90;;;;;;4934342;29;20055;-84
2022/12/12 12:45:40;;;;;;;10.32;4.78;;;1.60;99.90;;;;;;4927718;29;20048;-82
2022/12/12 12:48:19;;;;;;;11.98;4.97;;;1.60;99.90;;;;;;4926894;29;20054;-82
2022/12/12 12:50:51;;;;;;;10.45;4.50;;;1.50;99.90;;;;;;4932851;29;20070;-82
2022/12/12 12:53:24;;;;;;;13.75;6.13;;;2.10;99.90;;;;;;4934357;29;20572;-82
2022/12/12 12:55:55;;;;;;;12.20;6.07;;;1.90;99.90;;;;;;4918059;29;20051;-82
2022/12/12 12:58:25;;;;;;;12.00;5.72;;;1.80;99.90;;;;;;4918044;29;20142;-83
2022/12/12 13:01:23;;;;;;;10.98;4.95;;;1.50;99.90;;;;;;4918569;29;20114;-83
2022/12/12 13:03:53;;;;;;;12.15;5.35;;;2.10;99.90;;;;;;4936069;29;20182;-82
2022/12/12 13:06:41;;;;;;;9.63;4.90;;;1.30;99.90;;;;;;4952604;28;20047;-84
2022/12/12 13:09:25;;;;;;;12.82;5.00;;;2.20;99.90;;;;;;4975097;28;20046;-83
2022/12/12 13:11:58;;;;;;;12.10;5.68;;;1.40;99.90;;;;;;5018473;28;20104;-83
2022/12/12 13:14:38;;;;;;;11.63;4.88;;;2.20;99.90;;;;;;5014975;28;20625;-81
2022/12/12 13:17:06;;;;;;;12.13;4.78;;;1.40;99.90;;;;;;5011756;28;20549;-84
2022/12/12 13:19:44;;;;;;;11.98;5.35;;;2.50;99.90;;;;;;5009699;28;20053;-83
2022/12/12 13:22:19;;;;;;;13.13;5.45;;;1.40;99.90;;;;;;5011073;28;20490;-84
2022/12/12 13:25:07;;;;;;;13.25;5.22;;;2.10;99.90;;;;;;5011615;28;20053;-83
2022/12/12 13:27:44;;;;;;;12.93;5.40;;;1.30;99.90;;;;;;5009423;28;20103;-84
2022/12/12 13:30:23;;;;;;;11.90;5.90;;;1.40;99.90;;;;;;4975316;28;20042;-83